Tiempo atmosférico en la estación meteorológica de Cubillas de Rueda, León (916 m.)

Fecha
DESCASC
Temp. máxima en grados centígrados (hora)
DESCASC
Temp. mínima en grados centígrados (hora)
DESCASC
Temp. media en grados centígrados
DESCASC
Racha de viento máxima en m/sg (hora)
DESCASC
Velocidad máxima media en intervalos de 10 minutos(hora)
DESCASC
Precipitaciones diarias en mm
DESCASC
Precipitaciones de 00:00 a 06:00 en mm
DESCASC
Precipitaciones de 06:00 a 12:00 en mm
DESCASC
Precipitaciones de 12:00 a 18:00 en mm
DESCASC
Precipitaciones de 18:00 a 24:00 en mm
DESCASC
21-08-2017 34.6 (17:00) 10.1 (07:20) 22.3 7.78 (13:40) 4.17 (16:10) 0 0 0 0 0
20-08-2017 31.5 (18:50) 7.6 (07:40) 19.5 8.33 (21:40) 5.56 (21:40) 0 0 0 0 0
19-08-2017 28.7 (18:00) 10.9 (06:30) 19.8 8.61 (20:50) 5.28 (20:30) 0 0 0 0 0
18-08-2017 28.9 (17:50) 11.2 (06:50) 20 8.33 (14:50) 5.28 (19:20) 0 0 0 0 0
17-08-2017 31.5 (18:30) 10.8 (00:00) 21.2 7.5 (12:20) 4.44 (17:30) 0 0 0 0 0
16-08-2017 29.2 (18:30) 9.1 (00:00) 19.2 7.22 (17:50) 3.89 (18:30) 0 0 0 0 0
15-08-2017 29.5 (17:50) 13.5 (00:00) 21.5 10.28 (17:30) 5.83 (16:50) 0 0 0 0 0
14-08-2017 31.3 (17:40) 10.8 (07:10) 21 8.89 (17:30) 5.28 (14:30) 0 0 0 0 0
13-08-2017 30.3 (17:50) 10 (00:00) 20.1 8.89 (14:40) 4.72 (03:30) 0 0 0 0 0
12-08-2017 28.6 (19:10) 5.9 (00:00) 17.3 7.22 (21:30) 4.17 (23:30) 0 0 0 0 0
11-08-2017 26 (17:50) 5.6 (00:00) 15.8 6.94 (22:20) 4.72 (21:50) 0 0 0 0 0
10-08-2017 22 (17:20) 2.4 (00:00) 12.2 8.89 (19:30) 6.39 (19:30) 0 0 0 0 0
09-08-2017 17.1 (17:20) 3.4 (00:00) 10.3 15 (16:30) 8.89 (19:20) 0 0 0 0 0
08-08-2017 22.3 (20:20) 4.9 (00:00) 13.6 8.06 (15:00) 5 (15:30) 0 0 0 0 0
07-08-2017 26.3 (14:30) 8.7 (00:00) 17.5 11.67 (20:30) 6.67 (20:10) 0 0 0 0 0
06-08-2017 27.4 (18:00) 7.9 (00:00) 17.6 10.28 (20:30) 5.83 (21:00) 0 0 0 0 0
05-08-2017 29.4 (16:10) 13.3 (00:00) 21.3 10.28 (19:10) 7.5 (19:10) 0 0 0 0 0
04-08-2017 32.2 (19:20) 12.7 (00:00) 22.5 9.72 (16:20) 5 (15:50) 0 0 0 0 0
03-08-2017 29.9 (18:00) 8.3 (00:00) 19.1 8.89 (14:30) 4.72 (16:30) 0 0 0 0 0
02-08-2017 30 (19:30) 8.6 (00:00) 19.3 9.17 (16:30) 5.28 (16:10) 0 0 0 0 0
01-08-2017 26.6 (20:00) 9.5 (00:00) 18.1 8.61 (15:00) 5.83 (18:10) 0 0 0 0 0
31-07-2017 21.5 (17:40) 9.5 (00:00) 15.5 6.67 (10:40) 3.89 (10:40) 0 0 0 0 0
30-07-2017 27.8 (19:30) 10.6 (00:00) 19.2 8.33 (16:50) 4.44 (15:10) 0 0 0 0 0
29-07-2017 30.6 (18:40) 10.6 (00:00) 20.6 10.28 (14:40) 6.39 (14:30) 0 0 0 0 0
28-07-2017 30.2 (19:40) 13.1 (00:00) 21.7 7.22 (14:20) 4.44 (23:10) 0 0 0 0 0
27-07-2017 31 (17:20) 9.9 (00:00) 20.4 10.28 (17:00) 5.83 (16:40) 0 0 0 0 0
26-07-2017 29.8 (19:00) 8 (00:00) 18.9 7.22 (13:40) 5 (16:30) 0 0 0 0 0
25-07-2017 26.9 (16:40) 5 (00:00) 15.9 8.33 (15:20) 5 (19:20) 0 0 0 0 0
24-07-2017 24 (15:00) 10.4 (00:00) 17.2 11.11 (17:00) 7.78 (18:50) 0 0 0 0 0
23-07-2017 27.3 (17:00) 7.8 (00:00) 17.5 8.33 (21:20) 5.83 (21:20) 0 0 0 0 0

Gráficas

Temp. máximas Temp. mínimas Temp. medias Precipitaciones Rachas de viento máximas Velocidades máximas media en intervalos de 10 minutos

Datos horarios

Fecha y hora oficial Temperatura (ºC) Velocidad del viento (km/h) Dirección del viento Racha (km/h) Dirección de racha Precipitación (mm) Presión (hPa) Tendencia (hPa) Humedad (%)
2017-08-21 23:00:00 21.5 6 Nordeste 10 Sudeste 0 -- -- 40
2017-08-21 22:00:00 22.8 9 Sudeste 11 Sudeste 0 -- -- 38
2017-08-21 21:00:00 29.8 3 Sudeste 9 Oeste 0 -- -- 30
2017-08-21 20:00:00 33.8 8 Oeste 21 Oeste 0 -- -- 21
2017-08-21 19:00:00 34.4 13 Oeste 23 Noroeste 0 -- -- 19
2017-08-21 18:00:00 34.3 12 Oeste 21 Oeste 0 -- -- 20
2017-08-21 17:00:00 34.6 10 Oeste 25 Oeste 0 -- -- 19
2017-08-21 16:00:00 33.8 14 Oeste 24 Oeste 0 -- -- 19
2017-08-21 15:00:00 32.7 14 Oeste 22 Oeste 0 -- -- 21
2017-08-21 14:00:00 31.3 12 Sudoeste 28 Sudoeste 0 -- -- 22
2017-08-21 13:00:00 30.2 6 Sudeste 15 Sudeste 0 -- -- 22
2017-08-21 12:00:00 28.5 4 Nordeste 14 Sudeste 0 -- -- 25
2017-08-21 11:00:00 26 9 Este 18 Sudeste 0 -- -- 31
2017-08-21 10:00:00 19.9 5 Norte 12 Nordeste 0 -- -- 52
2017-08-21 09:00:00 15.4 5 Nordeste 17 Nordeste 0 -- -- 62
2017-08-21 08:00:00 11 6 Nordeste 13 Este 0 -- -- 76
2017-08-21 07:00:00 10.4 6 Este 8 Este 0 -- -- 80
2017-08-21 06:00:00 12.3 4 Oeste 7 Norte 0 -- -- 74
2017-08-21 05:00:00 15.1 6 Norte 12 Norte 0 -- -- 65
2017-08-21 04:00:00 15 4 Norte 14 Nordeste 0 -- -- 65
2017-08-21 03:00:00 17.2 9 Norte 13 Norte 0 -- -- 55
2017-08-21 02:00:00 17.1 9 Norte 14 Nordeste 0 -- -- 57
2017-08-21 01:00:00 18.6 7 Nordeste 13 Nordeste 0 -- -- 50
2017-08-21 00:00:00 20.5 8 Nordeste 19 Este 0 -- -- 46
2017-08-20 23:00:00 21.7 13 Este 27 Este 0 -- -- 44
2017-08-20 22:00:00 23.8 15 Sudeste 30 Sudeste 0 -- -- 39
2017-08-20 21:00:00 27.1 13 Sudeste 28 Sudeste 0 -- -- 33
2017-08-20 20:00:00 30.1 12 Sudeste 21 Este 0 -- -- 28
2017-08-20 19:00:00 31.4 8 Sur 20 Sudoeste 0 -- -- 25
2017-08-20 18:00:00 30.8 12 Oeste 24 Noroeste 0 -- -- 26
2017-08-20 17:00:00 30.5 10 Sur 26 Sudeste 0 -- -- 25
2017-08-20 16:00:00 29.3 10 Este 24 Sudeste 0 -- -- 27
2017-08-20 15:00:00 27.9 9 Sur 24 Sudeste 0 -- -- 29
2017-08-20 14:00:00 26.2 10 Sudeste 26 Este 0 -- -- 31
2017-08-20 13:00:00 24.2 5 Sudeste 15 Nordeste 0 -- -- 33
2017-08-20 12:00:00 21.2 8 Oeste 14 Oeste 0 -- -- 41
2017-08-20 11:00:00 18.8 4 Noroeste 9 Oeste 0 -- -- 47
2017-08-20 10:00:00 14.5 5 Norte 9 Nordeste 0 -- -- 63
2017-08-20 09:00:00 11.6 2 Nordeste 5 Nordeste 0 -- -- 78
2017-08-20 08:00:00 7.7 2 Nordeste 5 Nordeste 0 -- -- 90
2017-08-20 07:00:00 8.1 3 Nordeste 8 Este 0 -- -- 91
2017-08-20 06:00:00 8.7 3 Nordeste 9 Nordeste 0 -- -- 91
2017-08-20 05:00:00 10.9 3 Nordeste 10 Este 0 -- -- 86
2017-08-20 04:00:00 11.6 4 Este 9 Sudeste 0 -- -- 86
2017-08-20 03:00:00 12.7 2 Este 19 Sudeste 0 -- -- 82
2017-08-20 02:00:00 13.7 8 Sudeste 14 Este 0 -- -- 78
2017-08-20 01:00:00 14.8 13 Este 20 Este 0 -- -- 65
2017-08-20 00:00:00 16.5 13 Este 23 Este 0 -- -- 63
2017-08-19 23:00:00 18.1 15 Este 21 Este 0 -- -- 66
2017-08-19 22:00:00 20.3 5 Nordeste 27 Sudeste 0 -- -- 55
2017-08-19 21:00:00 24.1 16 Sudeste 31 Este 0 -- -- 42
2017-08-19 20:00:00 28.1 10 Oeste 17 Oeste 0 -- -- 23
2017-08-19 19:00:00 28.5 10 Oeste 18 Oeste 0 -- -- 23
2017-08-19 18:00:00 28.7 11 Oeste 19 Sudoeste 0 -- -- 22
2017-08-19 17:00:00 27.9 8 Sudoeste 21 Sudoeste 0 -- -- 27
2017-08-19 16:00:00 27 6 Sudoeste 24 Sudoeste 0 -- -- 29
2017-08-19 15:00:00 25.2 8 Noroeste 18 Sudoeste 0 -- -- 33
2017-08-19 14:00:00 24 7 Oeste 19 Oeste 0 -- -- 46
2017-08-19 13:00:00 22.1 8 Noroeste 18 Oeste 0 -- -- 53
2017-08-19 12:00:00 21.1 5 Oeste 17 Este 0 -- -- 54
2017-08-19 11:00:00 19.2 6 Este 18 Este 0 -- -- 63
2017-08-19 10:00:00 17.3 7 Este 16 Este 0 -- -- 75
2017-08-19 09:00:00 14.5 12 Este 25 Este 0 -- -- 87
2017-08-19 08:00:00 12.7 11 Este 22 Este 0 -- -- 94
2017-08-19 07:00:00 11 4 Norte 8 Nordeste 0 -- -- 92
2017-08-19 06:00:00 12 3 Nordeste 5 Nordeste 0 -- -- 92
2017-08-19 05:00:00 12.4 4 Nordeste 8 Este 0 -- -- 90
2017-08-19 04:00:00 13.1 0 Calma 7 Sudeste 0 -- -- 87
2017-08-19 03:00:00 13.8 4 Sudeste 8 Sudeste 0 -- -- 85
2017-08-19 02:00:00 14.5 4 Nordeste 9 Este 0 -- -- 84
2017-08-19 01:00:00 14.9 5 Sudeste 9 Este 0 -- -- 79
2017-08-19 00:00:00 16.3 5 Este 10 Nordeste 0 -- -- 76
2017-08-18 23:00:00 18.4 9 Nordeste 24 Este 0 -- -- 70
2017-08-18 22:00:00 20.7 15 Nordeste 27 Este 0 -- -- 61
2017-08-18 21:00:00 22.9 14 Este 27 Sudeste 0 -- -- 54
2017-08-18 20:00:00 25.4 16 Este 29 Sudeste 0 -- -- 48
2017-08-18 19:00:00 27.5 14 Nordeste 24 Este 0 -- -- 42
2017-08-18 18:00:00 28.4 8 Noroeste 18 Noroeste 0 -- -- 32
2017-08-18 17:00:00 27.7 7 Norte 22 Norte 0 -- -- 32
2017-08-18 16:00:00 27.3 10 Este 25 Nordeste 0 -- -- 33
2017-08-18 15:00:00 27.6 9 Norte 30 Norte 0 -- -- 35
2017-08-18 14:00:00 25.4 4 Sudeste 18 Nordeste 0 -- -- 41
2017-08-18 13:00:00 25 8 Norte 19 Noroeste 0 -- -- 44
2017-08-18 12:00:00 24.6 9 Nordeste 21 Norte 0 -- -- 45
2017-08-18 11:00:00 22.6 9 Norte 17 Norte 0 -- -- 55
2017-08-18 10:00:00 19.4 8 Nordeste 12 Nordeste 0 -- -- 69
2017-08-18 09:00:00 15.7 4 Nordeste 10 Nordeste 0 -- -- 84
2017-08-18 08:00:00 12.9 5 Este 10 Norte 0 -- -- 88
2017-08-18 07:00:00 11.7 8 Este 10 Este 0 -- -- 92
2017-08-18 06:00:00 12.6 3 Norte 8 Este 0 -- -- 86
2017-08-18 05:00:00 13.7 4 Nordeste 8 Nordeste 0 -- -- 81
2017-08-18 04:00:00 14 4 Este 9 Nordeste 0 -- -- 79
2017-08-18 03:00:00 15.3 2 Nordeste 8 Este 0 -- -- 73
2017-08-18 02:00:00 16.8 6 Este 12 Nordeste 0 -- -- 68
2017-08-18 01:00:00 20.3 8 Nordeste 17 Sudeste 0 -- -- 58
2017-08-18 00:00:00 21.4 10 Sudeste 18 Este 0 -- -- 55
2017-08-17 23:00:00 20.2 3 Sudoeste 8 Sudoeste 0 -- -- 50
2017-08-17 22:00:00 23.7 3 Sudoeste 11 Sudoeste 0 -- -- 47
2017-08-17 21:00:00 28.9 8 Sudoeste 21 Sudoeste 0 -- -- 35
2017-08-17 20:00:00 30.8 13 Sudoeste 22 Sudoeste 0 -- -- 31
2017-08-17 19:00:00 31.4 13 Sudoeste 27 Sudoeste 0 -- -- 29
2017-08-17 18:00:00 31.1 14 Sudoeste 26 Oeste 0 -- -- 31
2017-08-17 17:00:00 30.8 14 Sudoeste 24 Sudoeste 0 -- -- 32
2017-08-17 16:00:00 29.7 14 Sudoeste 24 Sudoeste 0 -- -- 33
2017-08-17 15:00:00 29.3 12 Sudoeste 22 Sudoeste 0 -- -- 34
2017-08-17 14:00:00 28.2 10 Sudoeste 22 Sudoeste 0 -- -- 38
2017-08-17 13:00:00 26.9 12 Oeste 27 Oeste 0 -- -- 41
2017-08-17 12:00:00 25.6 5 Noroeste 12 Oeste 0 -- -- 45
2017-08-17 11:00:00 22.8 6 Noroeste 11 Noroeste 0 -- -- 52
2017-08-17 10:00:00 19.9 2 Este 9 Nordeste 0 -- -- 63
2017-08-17 09:00:00 15.1 6 Nordeste 9 Nordeste 0 -- -- 79
2017-08-17 08:00:00 11.5 5 Nordeste 9 Nordeste 0 -- -- 88
2017-08-17 07:00:00 11.4 4 Nordeste 6 Nordeste 0 -- -- 89
2017-08-17 06:00:00 11.4 5 Este 6 Este 0 -- -- 87
2017-08-17 05:00:00 12.3 4 Este 6 Nordeste 0 -- -- 85
2017-08-17 04:00:00 12.6 5 Este 7 Este 0 -- -- 84
2017-08-17 03:00:00 13.7 2 Nordeste 7 Nordeste 0 -- -- 80
2017-08-17 02:00:00 14.8 0 Calma 6 Este 0 -- -- 74
2017-08-17 01:00:00 17.2 4 Sudeste 12 Nordeste 0 -- -- 66
2017-08-17 00:00:00 19.8 7 Nordeste 14 Nordeste 0 -- -- 60
2017-08-16 23:00:00 20.8 8 Nordeste 20 Nordeste 0 -- -- 55
2017-08-16 22:00:00 22.7 13 Nordeste 21 Nordeste 0 -- -- 48
2017-08-16 21:00:00 27.1 5 Nordeste 16 Sudoeste 0 -- -- 34
2017-08-16 20:00:00 28.8 11 Oeste 20 Oeste 0 -- -- 28
2017-08-16 19:00:00 28.8 14 Sudoeste 21 Oeste 0 -- -- 27
2017-08-16 18:00:00 29.1 12 Oeste 26 Sudoeste 0 -- -- 28
2017-08-16 17:00:00 28.6 6 Noroeste 20 Oeste 0 -- -- 29
2017-08-16 16:00:00 27.3 12 Sudoeste 21 Sudoeste 0 -- -- 27
2017-08-16 15:00:00 26.1 13 Oeste 24 Oeste 0 -- -- 25
2017-08-16 14:00:00 25.2 5 Oeste 19 Oeste 0 -- -- 32
2017-08-16 13:00:00 23.4 5 Oeste 19 Oeste 0 -- -- 43
2017-08-16 12:00:00 21.8 9 Sudoeste 17 Oeste 0 -- -- 55
2017-08-16 11:00:00 19.6 4 Sudoeste 12 Sudoeste 0 -- -- 61
2017-08-16 10:00:00 16.8 4 Norte 9 Nordeste 0 -- -- 72
2017-08-16 09:00:00 13.1 5 Nordeste 8 Norte 0 -- -- 83
2017-08-16 08:00:00 9.9 4 Nordeste 8 Este 0 -- -- 93
2017-08-16 07:00:00 10.3 3 Nordeste 9 Este 0 -- -- 88
2017-08-16 06:00:00 10 6 Este 8 Este 0 -- -- 88
2017-08-16 05:00:00 10.6 2 Este 6 Este 0 -- -- 86
2017-08-16 04:00:00 11.8 3 Sur 4 Sur 0 -- -- 85
2017-08-16 03:00:00 13.1 3 Nordeste 6 Este 0 -- -- 80
2017-08-16 02:00:00 15.1 2 Nordeste 6 Este 0 -- -- 73
2017-08-16 01:00:00 16.1 6 Nordeste 12 Este 0 -- -- 72
2017-08-16 00:00:00 17.2 8 Este 12 Este 0 -- -- 70
2017-08-15 23:00:00 18.2 8 Este 14 Este 0 -- -- 66
2017-08-15 22:00:00 20.4 11 Nordeste 26 Nordeste 0 -- -- 58
2017-08-15 21:00:00 23.4 18 Nordeste 27 Nordeste 0 -- -- 49
2017-08-15 20:00:00 28.3 10 Sudoeste 18 Sudoeste 0 -- -- 27
2017-08-15 19:00:00 27.6 8 Oeste 25 Sudoeste 0 -- -- 26
2017-08-15 18:00:00 29.5 15 Sudoeste 37 Sudoeste 0 -- -- 25
2017-08-15 17:00:00 28.8 15 Sudoeste 32 Sudoeste 0 -- -- 27
2017-08-15 16:00:00 28.3 14 Sudoeste 26 Oeste 0 -- -- 30
2017-08-15 15:00:00 27.7 16 Oeste 27 Oeste 0 -- -- 29
2017-08-15 14:00:00 27 14 Sudoeste 28 Oeste 0 -- -- 31
2017-08-15 13:00:00 26.3 10 Sudoeste 22 Sudoeste 0 -- -- 33
2017-08-15 12:00:00 24.9 6 Sur 17 Este 0 -- -- 42
2017-08-15 11:00:00 22.1 9 Sudeste 16 Sudeste 0 -- -- 52
2017-08-15 10:00:00 18.4 4 Norte 8 Nordeste 0 -- -- 68
2017-08-15 09:00:00 16 5 Nordeste 8 Nordeste 0 -- -- 75
2017-08-15 08:00:00 13.7 3 Norte 6 Nordeste 0 -- -- 76
2017-08-15 07:00:00 14 5 Este 9 Este 0 -- -- 75
2017-08-15 06:00:00 14.9 5 Norte 8 Nordeste 0 -- -- 73
2017-08-15 05:00:00 14.9 5 Este 8 Este 0 -- -- 69
2017-08-15 04:00:00 16.7 0 Calma 7 Nordeste 0 -- -- 63
2017-08-15 03:00:00 18 3 Nordeste 9 Este 0 -- -- 58
2017-08-15 02:00:00 20.1 4 Norte 26 Este 0 -- -- 52
2017-08-15 01:00:00 20.4 14 Este 23 Este 0 -- -- 51
2017-08-15 00:00:00 18.6 14 Este 23 Este 0 -- -- 49
2017-08-14 23:00:00 20.9 5 Sudoeste 10 Sudoeste 0 -- -- 43
2017-08-14 22:00:00 24.3 6 Sudoeste 13 Sudoeste 0 -- -- 35
2017-08-14 21:00:00 27.5 7 Sudoeste 16 Sudoeste 0 -- -- 31
2017-08-14 20:00:00 28.9 8 Sudoeste 15 Sudoeste 0 -- -- 28
2017-08-14 19:00:00 30.3 9 Sudoeste 27 Oeste 0 -- -- 25
2017-08-14 18:00:00 31.2 15 Oeste 32 Oeste 0 -- -- 25
2017-08-14 17:00:00 31.2 16 Sudoeste 28 Sudoeste 0 -- -- 25
2017-08-14 16:00:00 29.9 15 Sudoeste 27 Sudoeste 0 -- -- 25
2017-08-14 15:00:00 30.1 14 Oeste 28 Sudoeste 0 -- -- 27
2017-08-14 14:00:00 29.2 13 Sudoeste 21 Sudoeste 0 -- -- 27
2017-08-14 13:00:00 28.3 9 Sur 20 Sudoeste 0 -- -- 29
2017-08-14 12:00:00 26.1 6 Sudoeste 16 Sudoeste 0 -- -- 34
2017-08-14 11:00:00 23.5 3 Nordeste 8 Nordeste 0 -- -- 44
2017-08-14 10:00:00 19.6 4 Norte 9 Nordeste 0 -- -- 54
2017-08-14 09:00:00 15.3 3 Nordeste 10 Norte 0 -- -- 67
2017-08-14 08:00:00 12.4 5 Norte 9 Nordeste 0 -- -- 77
2017-08-14 07:00:00 10.9 5 Nordeste 8 Nordeste 0 -- -- 79
2017-08-14 06:00:00 11.7 6 Nordeste 9 Nordeste 0 -- -- 81
2017-08-14 05:00:00 13.6 7 Nordeste 12 Nordeste 0 -- -- 72
2017-08-14 04:00:00 13.6 9 Este 12 Nordeste 0 -- -- 72
2017-08-14 03:00:00 15.5 7 Nordeste 13 Nordeste 0 -- -- 64
2017-08-14 02:00:00 16.6 7 Nordeste 15 Nordeste 0 -- -- 60
2017-08-14 01:00:00 19 10 Nordeste 13 Norte 0 -- -- 52
2017-08-14 00:00:00 20.2 7 Nordeste 18 Nordeste 0 -- -- 49
2017-08-13 23:00:00 21.1 12 Este 21 Este 0 -- -- 42
2017-08-13 22:00:00 19.7 4 Sudeste 5 Sudeste 0 -- -- 38
2017-08-13 21:00:00 27.7 0 Calma 9 Sudoeste 0 -- -- 26
2017-08-13 20:00:00 29.4 7 Sudoeste 16 Sudoeste 0 -- -- 23
2017-08-13 19:00:00 29.8 9 Sudoeste 25 Oeste 0 -- -- 21
2017-08-13 18:00:00 30.3 10 Oeste 22 Oeste 0 -- -- 22
2017-08-13 17:00:00 29.8 10 Oeste 26 Oeste 0 -- -- 23
2017-08-13 16:00:00 29.4 13 Oeste 24 Oeste 0 -- -- 24
2017-08-13 15:00:00 28.6 13 Oeste 32 Oeste 0 -- -- 25
2017-08-13 14:00:00 28.1 8 Sur 22 Sur 0 -- -- 25
2017-08-13 13:00:00 26.9 8 Sudeste 18 Sur 0 -- -- 27
2017-08-13 12:00:00 25.7 5 Sur 18 Sudeste 0 -- -- 30
2017-08-13 11:00:00 23 7 Este 15 Este 0 -- -- 35
2017-08-13 10:00:00 18.1 6 Norte 9 Norte 0 -- -- 55
2017-08-13 09:00:00 13.5 7 Nordeste 13 Nordeste 0 -- -- 65
2017-08-13 08:00:00 10.4 10 Nordeste 16 Nordeste 0 -- -- 72
2017-08-13 07:00:00 11.3 10 Nordeste 19 Nordeste 0 -- -- 68
2017-08-13 06:00:00 12.1 12 Nordeste 19 Nordeste 0 -- -- 66
2017-08-13 05:00:00 14.5 15 Nordeste 22 Este 0 -- -- 49
2017-08-13 04:00:00 14.8 15 Este 26 Este 0 -- -- 52
2017-08-13 03:00:00 14.8 14 Este 22 Este 0 -- -- 54
2017-08-13 02:00:00 15.2 5 Nordeste 14 Sudeste 0 -- -- 55
2017-08-13 01:00:00 16.4 10 Este 16 Sudeste 0 -- -- 54
2017-08-13 00:00:00 17.8 12 Este 19 Nordeste 0 -- -- 50
2017-08-12 23:00:00 19.9 6 Nordeste 22 Este 0 -- -- 43
2017-08-12 22:00:00 22.4 14 Este 26 Este 0 -- -- 35
2017-08-12 21:00:00 26.8 3 Oeste 15 Oeste 0 -- -- 30
2017-08-12 20:00:00 28.1 7 Sudoeste 16 Sudoeste 0 -- -- 26
2017-08-12 19:00:00 28.4 5 Sudeste 20 Sudoeste 0 -- -- 26
2017-08-12 18:00:00 28.4 7 Oeste 20 Sudoeste 0 -- -- 26
2017-08-12 17:00:00 27.8 9 Oeste 21 Oeste 0 -- -- 27
2017-08-12 16:00:00 27 10 Sudoeste 21 Oeste 0 -- -- 27
2017-08-12 15:00:00 25.6 11 Oeste 21 Sudoeste 0 -- -- 28
2017-08-12 14:00:00 24.3 7 Oeste 22 Oeste 0 -- -- 34
2017-08-12 13:00:00 22.8 10 Sudoeste 24 Oeste 0 -- -- 38
2017-08-12 12:00:00 20.5 5 Noroeste 13 Oeste 0 -- -- 40
2017-08-12 11:00:00 17.3 5 Noroeste 10 Noroeste 0 -- -- 49
2017-08-12 10:00:00 15.1 3 Nordeste 10 Nordeste 0 -- -- 57
2017-08-12 09:00:00 10.7 8 Nordeste 10 Norte 0 -- -- 75
2017-08-12 08:00:00 6.8 4 Nordeste 6 Nordeste 0 -- -- 89
2017-08-12 07:00:00 6.3 0 Calma 9 Este 0 -- -- 89
2017-08-12 06:00:00 7 0 Calma 4 Nordeste 0 -- -- 87
2017-08-12 05:00:00 7.7 2 Sur 9 Nordeste 0 -- -- 85
2017-08-12 04:00:00 9.1 4 Este 9 Este 0 -- -- 79
2017-08-12 03:00:00 11.8 3 Nordeste 12 Nordeste 0 -- -- 75
2017-08-12 02:00:00 12.5 6 Este 12 Este 0 -- -- 74
2017-08-12 01:00:00 13.4 4 Nordeste 10 Este 0 -- -- 71
2017-08-12 00:00:00 14.7 7 Nordeste 16 Este 0 -- -- 66
2017-08-11 23:00:00 17.2 3 Nordeste 25 Este 0 -- -- 59
2017-08-11 22:00:00 19.2 17 Sudeste 24 Sudeste 0 -- -- 50
2017-08-11 21:00:00 24.1 4 Sudoeste 12 Sudoeste 0 -- -- 27
2017-08-11 20:00:00 24.6 10 Sudoeste 21 Sudoeste 0 -- -- 27
2017-08-11 19:00:00 25.4 7 Sudoeste 19 Sudoeste 0 -- -- 25
2017-08-11 18:00:00 25.8 12 Sudoeste 22 Sudoeste 0 -- -- 24
2017-08-11 17:00:00 25.6 12 Sudoeste 24 Oeste 0 -- -- 25
2017-08-11 16:00:00 24.1 4 Sudeste 22 Sudoeste 0 -- -- 27
2017-08-11 15:00:00 23.2 6 Nordeste 14 Noroeste 0 -- -- 29
2017-08-11 14:00:00 20.7 6 Norte 17 Nordeste 0 -- -- 33
2017-08-11 13:00:00 19 4 Sudoeste 23 Oeste 0 -- -- 40
2017-08-11 12:00:00 16.6 6 Noroeste 15 Sudoeste 0 -- -- 49
2017-08-11 11:00:00 14.5 4 Sudoeste 11 Sudoeste 0 -- -- 60
2017-08-11 10:00:00 12 2 Norte 9 Norte 0 -- -- 66
2017-08-11 09:00:00 9.2 2 Nordeste 7 Nordeste 0 -- -- 74
2017-08-11 08:00:00 6.7 3 Nordeste 6 Este 0 -- -- 84
2017-08-11 07:00:00 5.9 3 Este 5 Sudoeste 0 -- -- 85
2017-08-11 06:00:00 6.9 2 Nordeste 6 Nordeste 0 -- -- 82
2017-08-11 05:00:00 6.2 3 Este 6 Nordeste 0 -- -- 82
2017-08-11 04:00:00 6.3 0 Calma 4 Oeste 0 -- -- 81
2017-08-11 03:00:00 6.8 2 Este 4 Nordeste 0 -- -- 77
2017-08-11 02:00:00 7.8 0 Calma 7 Nordeste 0 -- -- 70
2017-08-11 01:00:00 8.6 4 Este 11 Este 0 -- -- 67
2017-08-11 00:00:00 10.5 8 Este 14 Este 0 -- -- 62
2017-08-10 23:00:00 11.1 9 Este 14 Este 0 -- -- 62
2017-08-10 22:00:00 13.7 6 Este 15 Nordeste 0 -- -- 50
2017-08-10 21:00:00 17.4 13 Norte 26 Norte 0 -- -- 44
2017-08-10 20:00:00 18.7 17 Nordeste 32 Nordeste 0 -- -- 41
2017-08-10 19:00:00 19.9 22 Nordeste 31 Norte 0 -- -- 34
2017-08-10 18:00:00 21.3 19 Norte 28 Nordeste 0 -- -- 31
2017-08-10 17:00:00 21.5 12 Norte 27 Nordeste 0 -- -- 28
2017-08-10 16:00:00 21.4 12 Norte 27 Norte 0 -- -- 33
2017-08-10 15:00:00 19.6 9 Nordeste 29 Nordeste 0 -- -- 37
2017-08-10 14:00:00 18.7 10 Norte 26 Noroeste 0 -- -- 41
2017-08-10 13:00:00 17.7 10 Norte 20 Norte 0 -- -- 44
2017-08-10 12:00:00 16.7 10 Norte 28 Norte 0 -- -- 49
2017-08-10 11:00:00 14.9 12 Norte 31 Norte 0 -- -- 53
2017-08-10 10:00:00 13.3 9 Norte 17 Norte 0 -- -- 58
2017-08-10 09:00:00 10.4 7 Norte 12 Norte 0 -- -- 65
2017-08-10 08:00:00 4 0 Calma 6 Este 0 -- -- 89
2017-08-10 07:00:00 2.6 0 Calma 4 Este 0 -- -- 88
2017-08-10 06:00:00 3 2 Sur 4 Sudeste 0 -- -- 84
2017-08-10 05:00:00 3.7 2 Este 8 Este 0 -- -- 81
2017-08-10 04:00:00 5.3 0 Calma 9 Nordeste 0 -- -- 73
2017-08-10 03:00:00 8.4 7 Nordeste 20 Nordeste 0 -- -- 66
2017-08-10 02:00:00 9.5 16 Nordeste 27 Nordeste 0 -- -- 61
2017-08-10 01:00:00 9.7 14 Nordeste 30 Norte 0 -- -- 62
2017-08-10 00:00:00 10.5 19 Nordeste 33 Norte 0 -- -- 61
2017-08-09 23:00:00 10.9 17 Norte 30 Norte 0 -- -- 60
2017-08-09 22:00:00 11.3 13 Norte 32 Norte 0 -- -- 58
2017-08-09 21:00:00 13.1 18 Norte 46 Norte 0 -- -- 52
2017-08-09 20:00:00 14.4 28 Norte 47 Norte 0 -- -- 48
2017-08-09 19:00:00 15.6 26 Norte 43 Norte 0 -- -- 48
2017-08-09 18:00:00 16.4 28 Norte 45 Norte 0 -- -- 46
2017-08-09 17:00:00 16.7 23 Norte 54 Norte 0 -- -- 44
2017-08-09 16:00:00 16.8 26 Norte 50 Norte 0 -- -- 43
2017-08-09 15:00:00 16.4 25 Norte 44 Norte 0 -- -- 41
2017-08-09 14:00:00 15.9 27 Nordeste 43 Norte 0 -- -- 43
2017-08-09 13:00:00 15.7 24 Norte 41 Norte 0 -- -- 41
2017-08-09 12:00:00 15.4 22 Norte 39 Norte 0 -- -- 46
2017-08-09 11:00:00 14.6 20 Norte 31 Norte 0 -- -- 53
2017-08-09 10:00:00 13.4 8 Norte 13 Norte 0 -- -- 59
2017-08-09 09:00:00 9.7 2 Nordeste 5 Nordeste 0 -- -- 73
2017-08-09 08:00:00 4.3 0 Calma 3 Este 0 -- -- 91
2017-08-09 07:00:00 3.4 0 Calma 2 Sudeste 0 -- -- 88
2017-08-09 06:00:00 4.1 0 Calma 2 Sudeste 0 -- -- 89
2017-08-09 05:00:00 5.2 0 Calma 4 Nordeste 0 -- -- 86
2017-08-09 04:00:00 5.9 2 Este 5 Este 0 -- -- 86
2017-08-09 03:00:00 7 3 Este 5 Este 0 -- -- 85
2017-08-09 02:00:00 8.3 4 Este 6 Este 0 -- -- 81
2017-08-09 01:00:00 9.8 5 Este 10 Este 0 -- -- 76
2017-08-09 00:00:00 11.3 8 Este 12 Este 0 -- -- 73
2017-08-08 23:00:00 12.8 9 Este 20 Nordeste 0 -- -- 63
2017-08-08 22:00:00 16 15 Nordeste 26 Nordeste 0 -- -- 54
2017-08-08 21:00:00 20 15 Norte 23 Norte 0 -- -- 41
2017-08-08 20:00:00 22.2 7 Sudoeste 18 Oeste 0 -- -- 32
2017-08-08 19:00:00 21.9 8 Sudoeste 19 Sudoeste 0 -- -- 32
2017-08-08 18:00:00 21 9 Nordeste 26 Nordeste 0 -- -- 33
2017-08-08 17:00:00 20.7 8 Nordeste 25 Nordeste 0 -- -- 33
2017-08-08 16:00:00 20 15 Nordeste 28 Norte 0 -- -- 37
2017-08-08 15:00:00 19.4 14 Norte 29 Nordeste 0 -- -- 41
2017-08-08 14:00:00 19.2 9 Norte 21 Norte 0 -- -- 40
2017-08-08 13:00:00 18.7 13 Norte 26 Nordeste 0 -- -- 42
2017-08-08 12:00:00 17.6 11 Norte 26 Norte 0 -- -- 46
2017-08-08 11:00:00 16.2 12 Norte 21 Norte 0 -- -- 49
2017-08-08 10:00:00 13.9 5 Norte 12 Norte 0 -- -- 57
2017-08-08 09:00:00 11.1 2 Nordeste 5 Sur 0 -- -- 70
2017-08-08 08:00:00 5.5 0 Calma 2 Sudoeste 0 -- -- 88
2017-08-08 07:00:00 5.2 0 Calma 4 Este 0 -- -- 88
2017-08-08 06:00:00 5.6 0 Calma 5 Norte 0 -- -- 85
2017-08-08 05:00:00 9 0 Calma 13 Norte 0 -- -- 76
2017-08-08 04:00:00 11 10 Norte 24 Norte 0 -- -- 74
2017-08-08 03:00:00 10.3 8 Norte 17 Norte 0 -- -- 79
2017-08-08 02:00:00 11.9 8 Norte 14 Norte 0 -- -- 74
2017-08-08 01:00:00 12.4 6 Norte 20 Norte 0 -- -- 73
2017-08-08 00:00:00 13.7 8 Norte 20 Norte 0 -- -- 69
2017-08-07 23:00:00 15 14 Norte 26 Norte 0 -- -- 66
2017-08-07 22:00:00 16.7 13 Norte 24 Norte 0 -- -- 63
2017-08-07 21:00:00 19.1 19 Nordeste 42 Norte 0 -- -- 58
2017-08-07 20:00:00 22.5 23 Norte 33 Norte 0 -- -- 50
2017-08-07 19:00:00 25.7 12 Oeste 21 Oeste 0 -- -- 36
2017-08-07 18:00:00 25.2 7 Sudoeste 18 Oeste 0 -- -- 40
2017-08-07 17:00:00 24.5 11 Oeste 29 Sudoeste 0 -- -- 38
2017-08-07 16:00:00 25.2 16 Sudoeste 25 Sudoeste 0 -- -- 45
2017-08-07 15:00:00 25.8 13 Oeste 24 Sudoeste 0 -- -- 42
2017-08-07 14:00:00 25.3 10 Sudoeste 22 Sur 0 -- -- 44
2017-08-07 13:00:00 23.7 9 Sudoeste 22 Sudoeste 0 -- -- 48
2017-08-07 12:00:00 22 6 Sudoeste 12 Sur 0 -- -- 53
2017-08-07 11:00:00 19.7 3 Noroeste 9 Norte 0 -- -- 59
2017-08-07 10:00:00 16.5 6 Norte 10 Nordeste 0 -- -- 69
2017-08-07 09:00:00 13 6 Nordeste 9 Nordeste 0 -- -- 81
2017-08-07 08:00:00 9.3 0 Calma 4 Sudeste 0 -- -- 92
2017-08-07 07:00:00 8.9 0 Calma 5 Nordeste 0 -- -- 89
2017-08-07 06:00:00 10 0 Calma 7 Este 0 -- -- 88
2017-08-07 05:00:00 10.6 6 Este 10 Este 0 -- -- 89
2017-08-07 04:00:00 10.3 5 Este 8 Nordeste 0 -- -- 87
2017-08-07 03:00:00 12 9 Nordeste 18 Nordeste 0 -- -- 85
2017-08-07 02:00:00 12.6 11 Nordeste 20 Este 0 -- -- 84
2017-08-07 01:00:00 13.5 10 Este 21 Este 0 -- -- 78
2017-08-07 00:00:00 15.4 10 Este 15 Este 0 -- -- 70
2017-08-06 23:00:00 16.8 8 Este 18 Este 0 -- -- 64
2017-08-06 22:00:00 18.9 9 Este 29 Este 0 -- -- 56
2017-08-06 21:00:00 22.6 21 Sudeste 37 Sudeste 0 -- -- 46
2017-08-06 20:00:00 25.1 15 Sudeste 23 Sudeste 0 -- -- 40
2017-08-06 19:00:00 26.4 12 Sudeste 28 Sudeste 0 -- -- 37
2017-08-06 18:00:00 27.4 12 Sur 31 Sur 0 -- -- 35
2017-08-06 17:00:00 26.6 16 Sudeste 31 Sudeste 0 -- -- 36
2017-08-06 16:00:00 26.8 16 Sudeste 33 Este 0 -- -- 37
2017-08-06 15:00:00 25.5 9 Sudoeste 27 Sudeste 0 -- -- 40
2017-08-06 14:00:00 24.4 11 Sudeste 23 Sudeste 0 -- -- 43
2017-08-06 13:00:00 22.6 5 Noroeste 16 Norte 0 -- -- 46
2017-08-06 12:00:00 20.5 8 Nordeste 15 Oeste 0 -- -- 53
2017-08-06 11:00:00 18.6 5 Norte 17 Sudeste 0 -- -- 59
2017-08-06 10:00:00 16.7 8 Este 16 Este 0 -- -- 65
2017-08-06 09:00:00 13.5 3 Este 7 Este 0 -- -- 79
2017-08-06 08:00:00 9.1 0 Calma 6 Nordeste 0 -- -- 89
2017-08-06 07:00:00 8.2 5 Este 7 Este 0 -- -- 90
2017-08-06 06:00:00 8.6 3 Este 5 Este 0 -- -- 89
2017-08-06 05:00:00 10 2 Este 7 Este 0 -- -- 83
2017-08-06 04:00:00 10.5 4 Este 7 Este 0 -- -- 85
2017-08-06 03:00:00 10.9 5 Este 6 Este 0 -- -- 86
2017-08-06 02:00:00 11.7 5 Este 6 Este 0 -- -- 81
2017-08-06 01:00:00 12.8 3 Este 8 Este 0 -- -- 77
2017-08-06 00:00:00 14 5 Este 8 Este 0 -- -- 75
2017-08-05 23:00:00 15.8 6 Nordeste 21 Nordeste 0 -- -- 69
2017-08-05 22:00:00 16.9 12 Nordeste 29 Norte 0 -- -- 65
2017-08-05 21:00:00 18.7 19 Norte 34 Norte 0 -- -- 61
2017-08-05 20:00:00 21.2 24 Norte 37 Nordeste 0 -- -- 55
2017-08-05 19:00:00 23.9 22 Norte 36 Norte 0 -- -- 51
2017-08-05 18:00:00 24.3 24 Nordeste 32 Nordeste 0 -- -- 51
2017-08-05 17:00:00 27.1 16 Sudeste 26 Sudeste 0 -- -- 44
2017-08-05 16:00:00 28.4 5 Nordeste 24 Sudeste 0 -- -- 37
2017-08-05 15:00:00 27.6 5 Noroeste 23 Oeste 0 -- -- 41
2017-08-05 14:00:00 26.6 5 Sudoeste 17 Sudoeste 0 -- -- 45
2017-08-05 13:00:00 24.6 4 Nordeste 13 Nordeste 0 -- -- 57
2017-08-05 12:00:00 24.3 9 Norte 15 Nordeste 0 -- -- 61
2017-08-05 11:00:00 21.9 6 Norte 15 Este 0 -- -- 71
2017-08-05 10:00:00 20 5 Nordeste 14 Nordeste 0 -- -- 81
2017-08-05 09:00:00 17 8 Este 15 Este 0 -- -- 93
2017-08-05 08:00:00 14.9 4 Nordeste 7 Nordeste 0 -- -- 94
2017-08-05 07:00:00 13.4 3 Este 5 Este 0 -- -- 92
2017-08-05 06:00:00 13.9 2 Este 5 Este 0 -- -- 89
2017-08-05 05:00:00 15.6 3 Nordeste 6 Norte 0 -- -- 91
2017-08-05 04:00:00 16.7 3 Nordeste 9 Norte 0 -- -- 86
2017-08-05 03:00:00 18.4 5 Este 13 Este 0 -- -- 81
2017-08-05 02:00:00 20.2 3 Este 15 Nordeste 0 -- -- 74
2017-08-05 01:00:00 21.4 6 Nordeste 29 Este 0 -- -- 72
2017-08-05 00:00:00 21.4 13 Este 17 Este 0 -- -- 66
2017-08-04 23:00:00 24.2 4 Noroeste 11 Oeste 0 -- -- 49
2017-08-04 22:00:00 26.1 2 Oeste 14 Oeste 0 -- -- 39
2017-08-04 21:00:00 29.5 6 Oeste 18 Oeste 0 -- -- 35
2017-08-04 20:00:00 31.7 11 Oeste 24 Oeste 0 -- -- 35
2017-08-04 19:00:00 31.5 13 Sudoeste 33 Sudoeste 0 -- -- 37
2017-08-04 18:00:00 31.4 12 Sudoeste 25 Oeste 0 -- -- 38
2017-08-04 17:00:00 31.5 16 Sudoeste 35 Sudoeste 0 -- -- 39
2017-08-04 16:00:00 30.7 15 Sudoeste 31 Sudoeste 0 -- -- 41
2017-08-04 15:00:00 29.7 15 Sudoeste 30 Sudoeste 0 -- -- 41
2017-08-04 14:00:00 28.4 14 Sudoeste 30 Sudoeste 0 -- -- 44
2017-08-04 13:00:00 26.9 14 Sudoeste 28 Sudoeste 0 -- -- 49
2017-08-04 12:00:00 25.1 8 Oeste 15 Sudoeste 0 -- -- 53
2017-08-04 11:00:00 23.2 4 Oeste 10 Norte 0 -- -- 58
2017-08-04 10:00:00 20.8 3 Noroeste 7 Oeste 0 -- -- 65
2017-08-04 09:00:00 17 5 Norte 8 Norte 0 -- -- 77
2017-08-04 08:00:00 14.1 4 Este 6 Este 0 -- -- 85
2017-08-04 07:00:00 13 3 Sudeste 9 Norte 0 -- -- 85
2017-08-04 06:00:00 13.5 4 Este 9 Nordeste 0 -- -- 83
2017-08-04 05:00:00 14.3 4 Norte 7 Norte 0 -- -- 82
2017-08-04 04:00:00 15.5 0 Calma 8 Norte 0 -- -- 75
2017-08-04 03:00:00 17.8 5 Sudoeste 9 Sudoeste 0 -- -- 69
2017-08-04 02:00:00 19.5 7 Sudoeste 14 Oeste 0 -- -- 64
2017-08-04 01:00:00 20.9 7 Oeste 13 Sudoeste 0 -- -- 59
2017-08-04 00:00:00 22.2 8 Oeste 19 Sudoeste 0 -- -- 54
2017-08-03 23:00:00 22.9 5 Sudoeste 13 Oeste 0 -- -- 50
2017-08-03 22:00:00 24.8 7 Sudoeste 15 Oeste 0 -- -- 42
2017-08-03 21:00:00 28.5 8 Oeste 27 Sudoeste 0 -- -- 34
2017-08-03 20:00:00 29.8 10 Sudoeste 25 Oeste 0 -- -- 35
2017-08-03 19:00:00 29.9 14 Sudoeste 27 Sudoeste 0 -- -- 35
2017-08-03 18:00:00 29.9 13 Sudoeste 26 Sudoeste 0 -- -- 36
2017-08-03 17:00:00 29.1 15 Sudoeste 29 Oeste 0 -- -- 36
2017-08-03 16:00:00 28.4 13 Sudoeste 24 Oeste 0 -- -- 39
2017-08-03 15:00:00 27.9 13 Sudoeste 32 Sudoeste 0 -- -- 39
2017-08-03 14:00:00 26.5 15 Sudoeste 28 Oeste 0 -- -- 43
2017-08-03 13:00:00 25.8 12 Oeste 24 Oeste 0 -- -- 44
2017-08-03 12:00:00 24.2 10 Sudoeste 18 Sudoeste 0 -- -- 49
2017-08-03 11:00:00 21.9 6 Sudoeste 11 Oeste 0 -- -- 45
2017-08-03 10:00:00 19.5 3 Sudoeste 6 Sur 0 -- -- 48
2017-08-03 09:00:00 14.8 2 Norte 5 Norte 0 -- -- 56
2017-08-03 08:00:00 10.1 3 Nordeste 5 Este 0 -- -- 70
2017-08-03 07:00:00 8.6 4 Nordeste 6 Nordeste 0 -- -- 74
2017-08-03 06:00:00 9.1 4 Este 5 Este 0 -- -- 71
2017-08-03 05:00:00 9.6 4 Nordeste 8 Nordeste 0 -- -- 69
2017-08-03 04:00:00 10.4 5 Este 7 Este 0 -- -- 65
2017-08-03 03:00:00 11.2 0 Calma 5 Nordeste 0 -- -- 63
2017-08-03 02:00:00 12.4 0 Calma 6 Este 0 -- -- 59
2017-08-03 01:00:00 14 3 Nordeste 9 Sur 0 -- -- 54
2017-08-03 00:00:00 17.2 3 Sur 7 Sudoeste 0 -- -- 48
2017-08-02 23:00:00 21.4 7 Sudoeste 14 Sur 0 -- -- 34
2017-08-02 22:00:00 21.4 5 Sur 6 Sur 0 -- -- 36
2017-08-02 21:00:00 28.6 4 Sudoeste 18 Oeste 0 -- -- 24
2017-08-02 20:00:00 29.3 10 Sudoeste 22 Sudoeste 0 -- -- 22
2017-08-02 19:00:00 29.3 12 Sudoeste 23 Oeste 0 -- -- 22
2017-08-02 18:00:00 29.5 13 Oeste 28 Oeste 0 -- -- 22
2017-08-02 17:00:00 29 17 Oeste 33 Oeste 0 -- -- 24
2017-08-02 16:00:00 28.2 15 Oeste 28 Oeste 0 -- -- 26
2017-08-02 15:00:00 27.6 14 Oeste 28 Sudoeste 0 -- -- 29
2017-08-02 14:00:00 26.7 16 Oeste 26 Oeste 0 -- -- 29
2017-08-02 13:00:00 25 10 Sudoeste 20 Sudoeste 0 -- -- 38
2017-08-02 12:00:00 23.2 6 Oeste 14 Sudoeste 0 -- -- 42
2017-08-02 11:00:00 20.9 4 Sur 10 Oeste 0 -- -- 58
2017-08-02 10:00:00 18.2 4 Norte 9 Nordeste 0 -- -- 68
2017-08-02 09:00:00 14.1 6 Nordeste 12 Nordeste 0 -- -- 81
2017-08-02 08:00:00 10.6 5 Nordeste 10 Nordeste 0 -- -- 92
2017-08-02 07:00:00 9.1 5 Nordeste 9 Nordeste 0 -- -- 92
2017-08-02 06:00:00 8.6 3 Nordeste 6 Nordeste 0 -- -- 89
2017-08-02 05:00:00 9.6 5 Este 9 Nordeste 0 -- -- 88
2017-08-02 04:00:00 10.9 5 Nordeste 7 Nordeste 0 -- -- 86
2017-08-02 03:00:00 12.1 3 Nordeste 10 Este 0 -- -- 83
2017-08-02 02:00:00 13.6 5 Este 8 Este 0 -- -- 81
2017-08-02 01:00:00 16.5 6 Nordeste 16 Sudeste 0 -- -- 71
2017-08-02 00:00:00 17 8 Sudeste 17 Este 0 -- -- 61
2017-08-01 23:00:00 19.6 5 Sudoeste 10 Sudoeste 0 -- -- 42
2017-08-01 22:00:00 20.8 4 Sudoeste 8 Sudoeste 0 -- -- 44
2017-08-01 21:00:00 26.1 5 Oeste 15 Oeste 0 -- -- 31
2017-08-01 20:00:00 26.6 9 Sudoeste 20 Oeste 0 -- -- 30
2017-08-01 19:00:00 26 14 Oeste 28 Oeste 0 -- -- 31
2017-08-01 18:00:00 25.9 19 Oeste 29 Oeste 0 -- -- 30
2017-08-01 17:00:00 26.4 13 Oeste 28 Sudoeste 0 -- -- 35
2017-08-01 16:00:00 26.2 15 Oeste 30 Sudoeste 0 -- -- 33
2017-08-01 15:00:00 25.2 17 Sudoeste 31 Sudoeste 0 -- -- 34
2017-08-01 14:00:00 24 8 Sur 22 Sur 0 -- -- 42
2017-08-01 13:00:00 22.5 8 Nordeste 19 Este 0 -- -- 47
2017-08-01 12:00:00 19.4 3 Noroeste 14 Noroeste 0 -- -- 59
2017-08-01 11:00:00 19.7 5 Nordeste 15 Este 0 -- -- 58
2017-08-01 10:00:00 17.5 5 Este 14 Este 0 -- -- 64
2017-08-01 09:00:00 13 3 Nordeste 8 Este 0 -- -- 82
2017-08-01 08:00:00 10 3 Nordeste 6 Nordeste 0 -- -- 90
2017-08-01 07:00:00 9.6 4 Este 6 Este 0 -- -- 89
2017-08-01 06:00:00 11.1 6 Este 9 Este 0 -- -- 84
2017-08-01 05:00:00 12.9 4 Este 8 Este 0 -- -- 80
2017-08-01 04:00:00 14.1 2 Este 8 Nordeste 0 -- -- 77
2017-08-01 03:00:00 13.4 4 Este 5 Este 0 -- -- 78
2017-08-01 02:00:00 14.5 3 Nordeste 11 Norte 0 -- -- 73
2017-08-01 01:00:00 15.4 6 Nordeste 15 Este 0 -- -- 70
2017-08-01 00:00:00 16.2 11 Este 19 Este 0 -- -- 62
2017-07-31 23:00:00 16.3 5 Este 8 Este 0 -- -- 56
2017-07-31 22:00:00 18 3 Sudeste 7 Oeste 0 -- -- 51
2017-07-31 21:00:00 20.2 3 Noroeste 8 Oeste 0 -- -- 44
2017-07-31 20:00:00 20.7 5 Sudoeste 14 Sudoeste 0 -- -- 38
2017-07-31 19:00:00 21.2 7 Sudoeste 14 Oeste 0 -- -- 31
2017-07-31 18:00:00 21.2 8 Oeste 17 Oeste 0 -- -- 35
2017-07-31 17:00:00 21.2 7 Noroeste 18 Noroeste 0 -- -- 46
2017-07-31 16:00:00 20.8 10 Noroeste 17 Oeste 0 -- -- 47
2017-07-31 15:00:00 19.6 4 Norte 14 Norte 0 -- -- 60
2017-07-31 14:00:00 18.1 5 Noroeste 11 Noroeste 0 -- -- 65
2017-07-31 13:00:00 17.4 2 Sudoeste 12 Noroeste 0 -- -- 64
2017-07-31 12:00:00 17.6 8 Oeste 19 Este 0 -- -- 66
2017-07-31 11:00:00 18.5 9 Este 24 Este 0 -- -- 59
2017-07-31 10:00:00 14.9 4 Este 8 Nordeste 0 -- -- 75
2017-07-31 09:00:00 11.9 3 Este 5 Noroeste 0 -- -- 87
2017-07-31 08:00:00 10.7 3 Norte 5 Nordeste 0 -- -- 90
2017-07-31 07:00:00 9.6 3 Nordeste 8 Nordeste 0 -- -- 90
2017-07-31 06:00:00 10.4 5 Nordeste 9 Nordeste 0 -- -- 88
2017-07-31 05:00:00 10.3 4 Este 11 Sudeste 0 -- -- 87
2017-07-31 04:00:00 10.7 4 Este 8 Este 0 -- -- 84
2017-07-31 03:00:00 12.5 5 Nordeste 14 Este 0 -- -- 83
2017-07-31 02:00:00 14.6 12 Nordeste 15 Nordeste 0 -- -- 75
2017-07-31 01:00:00 15.2 8 Nordeste 18 Este 0 -- -- 73
2017-07-31 00:00:00 16.3 14 Este 25 Este 0 -- -- 69
2017-07-30 23:00:00 15.6 3 Sudeste 9 Nordeste 0 -- -- 52
2017-07-30 22:00:00 21 4 Sudoeste 11 Oeste 0 -- -- 41
2017-07-30 21:00:00 24.7 6 Oeste 18 Noroeste 0 -- -- 33
2017-07-30 20:00:00 26.1 9 Noroeste 26 Noroeste 0 -- -- 33
2017-07-30 19:00:00 27.3 5 Noroeste 17 Oeste 0 -- -- 28
2017-07-30 18:00:00 26.9 8 Noroeste 26 Oeste 0 -- -- 29
2017-07-30 17:00:00 27.4 12 Sudoeste 30 Sudoeste 0 -- -- 27
2017-07-30 16:00:00 26.6 10 Sudoeste 29 Sudoeste 0 -- -- 32
2017-07-30 15:00:00 25.4 15 Oeste 26 Oeste 0 -- -- 33
2017-07-30 14:00:00 23.8 14 Oeste 26 Oeste 0 -- -- 38
2017-07-30 13:00:00 22.9 12 Sudoeste 21 Sudoeste 0 -- -- 44
2017-07-30 12:00:00 21.2 11 Oeste 18 Oeste 0 -- -- 46
2017-07-30 11:00:00 19.3 7 Sudoeste 14 Sudoeste 0 -- -- 55
2017-07-30 10:00:00 16.4 6 Sudoeste 12 Sudoeste 0 -- -- 69
2017-07-30 09:00:00 13.1 0 Calma 4 Noroeste 0 -- -- 78
2017-07-30 08:00:00 11.4 0 Calma 3 Norte 0 -- -- 83
2017-07-30 07:00:00 11.9 0 Calma 7 Sur 0 -- -- 77
2017-07-30 06:00:00 13.2 3 Sur 5 Sur 0 -- -- 74
2017-07-30 05:00:00 15 2 Sudoeste 11 Sur 0 -- -- 68
2017-07-30 04:00:00 15.7 8 Sur 10 Sur 0 -- -- 66
2017-07-30 03:00:00 16.9 6 Sur 10 Sudoeste 0 -- -- 62
2017-07-30 02:00:00 17.7 5 Sudoeste 10 Sudoeste 0 -- -- 60
2017-07-30 01:00:00 19.6 5 Sudoeste 9 Oeste 0 -- -- 55
2017-07-30 00:00:00 21.7 6 Sudoeste 19 Oeste 0 -- -- 48
2017-07-29 23:00:00 23 8 Oeste 15 Oeste 0 -- -- 42
2017-07-29 22:00:00 25.5 9 Oeste 20 Oeste 0 -- -- 36
2017-07-29 21:00:00 28.3 12 Noroeste 25 Oeste 0 -- -- 31
2017-07-29 20:00:00 29.9 10 Oeste 27 Oeste 0 -- -- 35
2017-07-29 19:00:00 30.4 15 Oeste 30 Oeste 0 -- -- 32
2017-07-29 18:00:00 29.6 16 Oeste 31 Oeste 0 -- -- 32
2017-07-29 17:00:00 29.3 18 Oeste 33 Sudoeste 0 -- -- 35
2017-07-29 16:00:00 28.5 17 Sudoeste 32 Oeste 0 -- -- 35
2017-07-29 15:00:00 27.9 21 Oeste 37 Sudoeste 0 -- -- 32
2017-07-29 14:00:00 27 18 Oeste 32 Sudoeste 0 -- -- 26
2017-07-29 13:00:00 25.3 17 Sudoeste 30 Sudoeste 0 -- -- 47
2017-07-29 12:00:00 23.6 13 Sudoeste 26 Sudoeste 0 -- -- 50
2017-07-29 11:00:00 21.8 5 Oeste 15 Oeste 0 -- -- 52
2017-07-29 10:00:00 19.6 5 Oeste 9 Sudoeste 0 -- -- 59
2017-07-29 09:00:00 15.9 2 Nordeste 9 Nordeste 0 -- -- 78
2017-07-29 08:00:00 12.3 3 Nordeste 8 Este 0 -- -- 88
2017-07-29 07:00:00 10.6 5 Este 6 Este 0 -- -- 90
2017-07-29 06:00:00 11.4 5 Este 8 Este 0 -- -- 88
2017-07-29 05:00:00 12.4 0 Calma 6 Este 0 -- -- 85
2017-07-29 04:00:00 13.4 0 Calma 6 Noroeste 0 -- -- 81
2017-07-29 03:00:00 15.4 4 Nordeste 8 Nordeste 0 -- -- 78
2017-07-29 02:00:00 15.8 2 Sudeste -- -- 0 -- -- 75
2017-07-29 01:00:00 17.7 4 Sudeste 7 Sudeste 0 -- -- 67
2017-07-29 00:00:00 21.6 4 Norte 23 Este 0 -- -- 56
2017-07-28 23:00:00 21.6 12 Este 21 Este 0 -- -- 54
2017-07-28 22:00:00 25 5 Oeste 11 Sur 0 -- -- 36
2017-07-28 21:00:00 27.8 5 Sudoeste 14 Oeste 0 -- -- 32
2017-07-28 20:00:00 30.2 8 Oeste 20 Oeste 0 -- -- 28
2017-07-28 19:00:00 29.5 11 Oeste 24 Oeste 0 -- -- 29
2017-07-28 18:00:00 29.5 10 Sudoeste 24 Sudoeste 0 -- -- 27
2017-07-28 17:00:00 29.6 12 Sudoeste 24 Sudoeste 0 -- -- 27
2017-07-28 16:00:00 28.5 10 Sudoeste 24 Sudoeste 0 -- -- 31
2017-07-28 15:00:00 27.3 11 Sudoeste 26 Sudoeste 0 -- -- 30
2017-07-28 14:00:00 25.3 12 Oeste 19 Sudoeste 0 -- -- 38
2017-07-28 13:00:00 23.2 7 Sudoeste 17 Sudoeste 0 -- -- 48
2017-07-28 12:00:00 21 3 Norte 13 Noroeste 0 -- -- 66
2017-07-28 11:00:00 18.7 5 Noroeste 9 Oeste 0 -- -- 77
2017-07-28 10:00:00 16.8 6 Norte 11 Norte 0 -- -- 86
2017-07-28 09:00:00 14.6 6 Norte 10 Norte 0 -- -- 93
2017-07-28 08:00:00 14.4 5 Nordeste 9 Este 0 -- -- 97
2017-07-28 07:00:00 13.4 5 Norte 9 Nordeste 0 -- -- 96
2017-07-28 06:00:00 13.1 5 Este 9 Nordeste 0 -- -- 91
2017-07-28 05:00:00 13.5 4 Este 9 Nordeste 0 -- -- 87
2017-07-28 04:00:00 14.8 3 Nordeste 8 Nordeste -- -- -- 83
2017-07-28 03:00:00 16.2 2 Norte 6 Este 0 -- -- 80
2017-07-28 02:00:00 18.6 3 Sudeste 13 Este 0 -- -- 72
2017-07-28 01:00:00 17.9 4 Sudeste 8 Sudeste 0 -- -- 74
2017-07-28 00:00:00 18.9 3 Sur 5 Sudoeste 0 -- -- 64
2017-07-27 23:00:00 23.2 2 Oeste 20 Noroeste 0 -- -- 52
2017-07-27 22:00:00 25.1 11 Oeste 27 Oeste 0 -- -- 47
2017-07-27 21:00:00 28.5 15 Oeste 29 Noroeste 0 -- -- 40
2017-07-27 20:00:00 30.2 18 Oeste 33 Oeste 0 -- -- 32
2017-07-27 19:00:00 30.9 15 Oeste 31 Noroeste 0 -- -- 32
2017-07-27 18:00:00 30.9 15 Sudoeste 35 Sudoeste 0 -- -- 31
2017-07-27 17:00:00 30.6 21 Sudoeste 37 Sudoeste 0 -- -- 31
2017-07-27 16:00:00 30.4 20 Oeste 32 Sudoeste 0 -- -- 28
2017-07-27 15:00:00 29 10 Sur 30 Sudoeste 0 -- -- 32
2017-07-27 14:00:00 27.4 10 Sudoeste 26 Oeste 0 -- -- 34
2017-07-27 13:00:00 26.2 9 Oeste 18 Oeste 0 -- -- 35
2017-07-27 12:00:00 24.2 8 Noroeste 15 Oeste 0 -- -- 45
2017-07-27 11:00:00 22.6 6 Oeste 13 Sudoeste 0 -- -- 50
2017-07-27 10:00:00 20.2 3 Norte 5 Noroeste 0 -- -- 59
2017-07-27 09:00:00 16.1 5 Norte 8 Nordeste 0 -- -- 73
2017-07-27 08:00:00 12.1 4 Este 7 Nordeste 0 -- -- 86
2017-07-27 07:00:00 10.1 4 Nordeste 8 Nordeste 0 -- -- 88
2017-07-27 06:00:00 10.4 4 Nordeste 9 Nordeste 0 -- -- 87
2017-07-27 05:00:00 11.2 4 Este 11 Este 0 -- -- 83
2017-07-27 04:00:00 12.1 3 Nordeste 9 Nordeste 0 -- -- 82
2017-07-27 03:00:00 13.7 3 Nordeste 8 Nordeste 0 -- -- 75
2017-07-27 02:00:00 15.7 6 Este 10 Norte 0 -- -- 70
2017-07-27 01:00:00 16.7 5 Este 10 Este 0 -- -- 68
2017-07-27 00:00:00 18.8 7 Nordeste 13 Este 0 -- -- 58
2017-07-26 23:00:00 20.6 8 Nordeste 14 Nordeste 0 -- -- 43
2017-07-26 22:00:00 24.3 7 Sudoeste 14 Sudoeste 0 -- -- 34
2017-07-26 21:00:00 27 8 Oeste 21 Sudoeste 0 -- -- 33
2017-07-26 20:00:00 28.4 9 Sudoeste 20 Oeste 0 -- -- 27
2017-07-26 19:00:00 29.8 9 Sudoeste 24 Oeste 0 -- -- 28
2017-07-26 18:00:00 29 14 Sudoeste 26 Sudoeste 0 -- -- 30
2017-07-26 17:00:00 28.7 17 Sudoeste 44 Oeste 0 -- -- 32
2017-07-26 16:00:00 28.1 13 Sudoeste 25 Sudoeste 0 -- -- 33
2017-07-26 15:00:00 26.3 10 Sudoeste 23 Sudoeste 0 -- -- 37
2017-07-26 14:00:00 24.2 14 Sudoeste 26 Sudoeste 0 -- -- 43
2017-07-26 13:00:00 22.2 11 Sudoeste 20 Oeste 0 -- -- 49
2017-07-26 12:00:00 20.3 10 Sudoeste 18 Sudoeste 0 -- -- 53
2017-07-26 11:00:00 17.9 9 Sudoeste 16 Sudoeste 0 -- -- 59
2017-07-26 10:00:00 16 5 Noroeste 13 Oeste 0 -- -- 65
2017-07-26 09:00:00 13.1 3 Norte 8 Norte 0 -- -- 74
2017-07-26 08:00:00 9.4 0 Calma 5 Nordeste 0 -- -- 85
2017-07-26 07:00:00 8.2 4 Nordeste 6 Este 0 -- -- 90
2017-07-26 06:00:00 8.4 0 Calma 6 Sudoeste 0 -- -- 86
2017-07-26 05:00:00 9.4 2 Oeste 7 Noroeste 0 -- -- 85
2017-07-26 04:00:00 10.3 0 Calma 6 Nordeste 0 -- -- 81
2017-07-26 03:00:00 10.9 3 Nordeste 8 Este 0 -- -- 82
2017-07-26 02:00:00 12.4 0 Calma 4 Norte 0 -- -- 74
2017-07-26 01:00:00 12.8 4 Sudeste 6 Este 0 -- -- 74
2017-07-26 00:00:00 14.3 3 Sudeste 10 Este 0 -- -- 66
2017-07-25 23:00:00 17.4 9 Este 18 Este 0 -- -- 57
2017-07-25 22:00:00 19.8 10 Nordeste 22 Nordeste 0 -- -- 50
2017-07-25 21:00:00 22.2 13 Norte 26 Norte 0 -- -- 45
2017-07-25 20:00:00 24.2 16 Norte 27 Norte 0 -- -- 39
2017-07-25 19:00:00 25.6 15 Norte 28 Norte 0 -- -- 37
2017-07-25 18:00:00 26.2 13 Nordeste 24 Norte 0 -- -- 34
2017-07-25 17:00:00 26.7 13 Norte 23 Noroeste 0 -- -- 32
2017-07-25 16:00:00 25.8 8 Norte 30 Norte 0 -- -- 31
2017-07-25 15:00:00 24.7 12 Nordeste 26 Nordeste 0 -- -- 32
2017-07-25 14:00:00 23.1 7 Nordeste 18 Este 0 -- -- 35
2017-07-25 13:00:00 21.6 6 Sudeste 21 Norte 0 -- -- 40
2017-07-25 12:00:00 19.2 8 Norte 15 Nordeste 0 -- -- 47
2017-07-25 11:00:00 16.8 6 Norte 11 Norte 0 -- -- 52
2017-07-25 10:00:00 14.4 4 Sudoeste 9 Noroeste 0 -- -- 65
2017-07-25 09:00:00 11.5 3 Sudoeste 6 Oeste 0 -- -- 75
2017-07-25 08:00:00 7.2 0 Calma 6 Este 0 -- -- 89
2017-07-25 07:00:00 5.1 4 Nordeste 5 Nordeste 0 -- -- 90
2017-07-25 06:00:00 6.2 0 Calma 8 Sudeste 0 -- -- 88
2017-07-25 05:00:00 6.5 3 Este 6 Este 0 -- -- 86
2017-07-25 04:00:00 7.2 0 Calma 8 Este 0 -- -- 83
2017-07-25 03:00:00 8.8 3 Este 9 Nordeste 0 -- -- 78
2017-07-25 02:00:00 10.4 5 Sudeste 10 Este 0 -- -- 76
2017-07-25 01:00:00 10.1 8 Este 11 Este 0 -- -- 78
2017-07-25 00:00:00 12.9 8 Nordeste 25 Nordeste 0 -- -- 68
2017-07-24 23:00:00 15.6 16 Nordeste 27 Norte 0 -- -- 59
2017-07-24 22:00:00 16.9 13 Norte 23 Norte 0 -- -- 55
2017-07-24 21:00:00 19.9 14 Norte 31 Norte 0 -- -- 47
2017-07-24 20:00:00 21.1 21 Norte 34 Norte 0 -- -- 46
2017-07-24 19:00:00 21.9 24 Norte 39 Nordeste 0 -- -- 44
2017-07-24 18:00:00 23.1 21 Norte 39 Norte 0 -- -- 44
2017-07-24 17:00:00 23.6 27 Norte 40 Norte 0 -- -- 42
2017-07-24 16:00:00 23.2 25 Nordeste 37 Nordeste 0 -- -- 43
2017-07-24 15:00:00 24 18 Norte 32 Norte 0 -- -- 40
2017-07-24 14:00:00 22.5 19 Nordeste 32 Norte 0 -- -- 41
2017-07-24 13:00:00 22 14 Nordeste 30 Norte 0 -- -- 40
2017-07-24 12:00:00 20.6 12 Norte 23 Noroeste 0 -- -- 46
2017-07-24 11:00:00 20 9 Norte 20 Nordeste 0 -- -- 52
2017-07-24 10:00:00 18.3 5 Norte 12 Norte 0 -- -- 63
2017-07-24 09:00:00 15.6 4 Norte 7 Norte 0 -- -- 74
2017-07-24 08:00:00 11.9 3 Este 9 Nordeste 0 -- -- 86
2017-07-24 07:00:00 11.2 2 Este 6 Nordeste 0 -- -- 88
2017-07-24 06:00:00 11.1 2 Este 6 Nordeste 0 -- -- 88
2017-07-24 05:00:00 10.7 0 Calma 4 Nordeste 0 -- -- 89
2017-07-24 04:00:00 10.6 0 Calma 8 Este 0 -- -- 85
2017-07-24 03:00:00 11.5 0 Calma 5 Este 0 -- -- 85
2017-07-24 02:00:00 12.7 4 Este 8 Nordeste 0 -- -- 85
2017-07-24 01:00:00 13.9 2 Nordeste 6 Sudeste 0 -- -- 77
2017-07-24 00:00:00 16.9 3 Nordeste 15 Norte 0 -- -- 69
2017-07-23 23:00:00 19 8 Norte 20 Norte 0 -- -- 64
2017-07-23 22:00:00 20.9 13 Nordeste 30 Nordeste 0 -- -- 57
2017-07-23 21:00:00 23 13 Norte 27 Nordeste 0 -- -- 51
2017-07-23 20:00:00 25.3 19 Nordeste 27 Norte 0 -- -- 44
2017-07-23 19:00:00 26.2 8 Norte 21 Oeste 0 -- -- 36
2017-07-23 18:00:00 26.1 9 Sudoeste 28 Sudoeste 0 -- -- 36
2017-07-23 17:00:00 27.3 16 Sudoeste 27 Sudoeste 0 -- -- 33
2017-07-23 16:00:00 26.6 11 Oeste 25 Oeste 0 -- -- 33
2017-07-23 15:00:00 25.8 5 Sur 19 Oeste 0 -- -- 35
2017-07-23 14:00:00 25 6 Sudoeste 19 Oeste 0 -- -- 37
2017-07-23 13:00:00 22.7 7 Oeste 23 Oeste 0 -- -- 45
2017-07-23 12:00:00 20.6 4 Oeste 14 Oeste 0 -- -- 51
2017-07-23 11:00:00 17.6 6 Oeste 14 Oeste 0 -- -- 63
2017-07-23 10:00:00 16.4 4 Sudoeste 12 Sur 0 -- -- 68
2017-07-23 09:00:00 13.2 0 Calma 6 Norte 0 -- -- 74
2017-07-23 08:00:00 8.9 4 Este 9 Nordeste 0 -- -- 88
2017-07-23 07:00:00 7.8 3 Nordeste 8 Nordeste 0 -- -- 89
2017-07-23 06:00:00 8.5 4 Este 8 Este 0 -- -- 90
2017-07-23 05:00:00 9 3 Este 7 Este 0 -- -- 89
2017-07-23 04:00:00 10.8 4 Este 9 Este 0 -- -- 86
2017-07-23 03:00:00 11.3 5 Este 8 Este 0 -- -- 86
2017-07-23 02:00:00 13.6 5 Este 12 Nordeste 0 -- -- 80
2017-07-23 01:00:00 14.4 5 Este 15 Sudeste 0 -- -- 76
2017-07-23 00:00:00 16.3 11 Este 17 Este 0 -- -- 70